sensor_id;sensor_type;location;lat;lon;timestamp;P1;durP1;ratioP1;P2;durP2;ratioP2
34896;SDS011;43407;51.828;-2.298;2023-02-01T00:01:54;14.00;;;3.47;;
34896;SDS011;43407;51.828;-2.298;2023-02-01T00:04:20;16.85;;;3.42;;
34896;SDS011;43407;51.828;-2.298;2023-02-01T00:06:46;15.38;;;3.92;;
34896;SDS011;43407;51.828;-2.298;2023-02-01T00:09:12;12.98;;;3.10;;
34896;SDS011;43407;51.828;-2.298;2023-02-01T00:11:37;20.10;;;3.70;;
34896;SDS011;43407;51.828;-2.298;2023-02-01T00:14:03;23.75;;;3.78;;
34896;SDS011;43407;51.828;-2.298;2023-02-01T00:16:29;13.93;;;3.17;;
34896;SDS011;43407;51.828;-2.298;2023-02-01T00:18:56;15.10;;;3.10;;
34896;SDS011;43407;51.828;-2.298;2023-02-01T00:21:26;14.88;;;3.40;;
34896;SDS011;43407;51.828;-2.298;2023-02-01T00:23:52;9.60;;;3.08;;
34896;SDS011;43407;51.828;-2.298;2023-02-01T00:26:28;14.68;;;2.85;;
34896;SDS011;43407;51.828;-2.298;2023-02-01T00:28:59;11.15;;;3.17;;
34896;SDS011;43407;51.828;-2.298;2023-02-01T00:31:25;16.35;;;2.83;;
34896;SDS011;43407;51.828;-2.298;2023-02-01T00:33:51;16.90;;;3.40;;
34896;SDS011;43407;51.828;-2.298;2023-02-01T00:36:17;20.27;;;3.42;;
34896;SDS011;43407;51.828;-2.298;2023-02-01T00:38:43;14.98;;;3.45;;
34896;SDS011;43407;51.828;-2.298;2023-02-01T00:41:12;10.65;;;2.95;;
34896;SDS011;43407;51.828;-2.298;2023-02-01T00:43:42;14.00;;;3.22;;
34896;SDS011;43407;51.828;-2.298;2023-02-01T00:46:08;14.02;;;3.13;;
34896;SDS011;43407;51.828;-2.298;2023-02-01T00:48:33;16.90;;;3.28;;
34896;SDS011;43407;51.828;-2.298;2023-02-01T00:51:03;14.32;;;3.28;;
34896;SDS011;43407;51.828;-2.298;2023-02-01T00:53:30;12.10;;;2.72;;
34896;SDS011;43407;51.828;-2.298;2023-02-01T00:55:56;15.43;;;2.80;;
34896;SDS011;43407;51.828;-2.298;2023-02-01T00:58:22;14.05;;;3.00;;
34896;SDS011;43407;51.828;-2.298;2023-02-01T01:00:56;11.82;;;2.88;;
34896;SDS011;43407;51.828;-2.298;2023-02-01T01:03:29;22.55;;;3.80;;
34896;SDS011;43407;51.828;-2.298;2023-02-01T01:05:58;12.52;;;2.70;;
34896;SDS011;43407;51.828;-2.298;2023-02-01T01:08:25;13.13;;;3.10;;
34896;SDS011;43407;51.828;-2.298;2023-02-01T01:10:51;16.58;;;3.42;;
34896;SDS011;43407;51.828;-2.298;2023-02-01T01:13:16;13.82;;;3.13;;
34896;SDS011;43407;51.828;-2.298;2023-02-01T01:15:42;10.63;;;3.33;;
34896;SDS011;43407;51.828;-2.298;2023-02-01T01:18:07;15.70;;;3.25;;
34896;SDS011;43407;51.828;-2.298;2023-02-01T01:20:34;14.98;;;3.75;;
34896;SDS011;43407;51.828;-2.298;2023-02-01T01:23:00;10.43;;;2.75;;
34896;SDS011;43407;51.828;-2.298;2023-02-01T01:25:26;14.60;;;3.63;;
34896;SDS011;43407;51.828;-2.298;2023-02-01T01:27:51;17.05;;;3.30;;
34896;SDS011;43407;51.828;-2.298;2023-02-01T01:30:17;11.63;;;2.88;;
34896;SDS011;43407;51.828;-2.298;2023-02-01T01:32:43;15.88;;;3.40;;
34896;SDS011;43407;51.828;-2.298;2023-02-01T01:35:08;12.27;;;2.97;;
34896;SDS011;43407;51.828;-2.298;2023-02-01T01:37:34;14.07;;;3.35;;
34896;SDS011;43407;51.828;-2.298;2023-02-01T01:40:01;20.40;;;3.45;;
34896;SDS011;43407;51.828;-2.298;2023-02-01T01:42:27;10.68;;;2.78;;
34896;SDS011;43407;51.828;-2.298;2023-02-01T01:45:01;12.30;;;3.20;;
34896;SDS011;43407;51.828;-2.298;2023-02-01T01:47:47;11.32;;;2.83;;
34896;SDS011;43407;51.828;-2.298;2023-02-01T01:50:16;17.77;;;3.28;;
34896;SDS011;43407;51.828;-2.298;2023-02-01T01:52:45;14.43;;;2.92;;
34896;SDS011;43407;51.828;-2.298;2023-02-01T01:55:12;16.73;;;2.67;;
34896;SDS011;43407;51.828;-2.298;2023-02-01T01:57:39;8.50;;;2.63;;
34896;SDS011;43407;51.828;-2.298;2023-02-01T02:00:08;14.13;;;2.88;;
34896;SDS011;43407;51.828;-2.298;2023-02-01T02:02:36;11.52;;;3.03;;
34896;SDS011;43407;51.828;-2.298;2023-02-01T02:05:03;13.82;;;3.25;;
34896;SDS011;43407;51.828;-2.298;2023-02-01T02:07:30;10.27;;;2.05;;
34896;SDS011;43407;51.828;-2.298;2023-02-01T02:09:59;6.72;;;1.98;;
34896;SDS011;43407;51.828;-2.298;2023-02-01T02:12:25;12.02;;;3.20;;
34896;SDS011;43407;51.828;-2.298;2023-02-01T02:14:51;11.90;;;2.67;;
34896;SDS011;43407;51.828;-2.298;2023-02-01T02:17:21;12.05;;;2.80;;
34896;SDS011;43407;51.828;-2.298;2023-02-01T02:31:02;12.20;;;2.85;;
34896;SDS011;43407;51.828;-2.298;2023-02-01T02:36:37;13.52;;;3.05;;
34896;SDS011;43407;51.828;-2.298;2023-02-01T02:42:27;12.60;;;3.17;;
34896;SDS011;43407;51.828;-2.298;2023-02-01T02:45:18;11.27;;;2.67;;
34896;SDS011;43407;51.828;-2.298;2023-02-01T02:50:41;8.07;;;2.83;;
34896;SDS011;43407;51.828;-2.298;2023-02-01T02:53:30;9.00;;;2.58;;
34896;SDS011;43407;51.828;-2.298;2023-02-01T02:56:21;9.55;;;2.22;;
34896;SDS011;43407;51.828;-2.298;2023-02-01T02:59:07;16.27;;;3.42;;
34896;SDS011;43407;51.828;-2.298;2023-02-01T03:01:52;10.50;;;2.97;;
34896;SDS011;43407;51.828;-2.298;2023-02-01T03:04:37;13.05;;;3.00;;
34896;SDS011;43407;51.828;-2.298;2023-02-01T03:10:07;13.57;;;3.00;;
34896;SDS011;43407;51.828;-2.298;2023-02-01T03:12:35;10.60;;;3.13;;
34896;SDS011;43407;51.828;-2.298;2023-02-01T03:15:21;11.18;;;2.63;;
34896;SDS011;43407;51.828;-2.298;2023-02-01T03:18:03;11.90;;;2.90;;
34896;SDS011;43407;51.828;-2.298;2023-02-01T03:20:32;13.55;;;3.10;;
34896;SDS011;43407;51.828;-2.298;2023-02-01T03:22:58;14.15;;;2.53;;
34896;SDS011;43407;51.828;-2.298;2023-02-01T03:25:29;13.30;;;3.05;;
34896;SDS011;43407;51.828;-2.298;2023-02-01T03:30:39;12.30;;;2.63;;
34896;SDS011;43407;51.828;-2.298;2023-02-01T03:33:08;11.05;;;3.00;;
34896;SDS011;43407;51.828;-2.298;2023-02-01T03:38:44;18.08;;;2.97;;
34896;SDS011;43407;51.828;-2.298;2023-02-01T03:49:26;8.87;;;2.87;;
34896;SDS011;43407;51.828;-2.298;2023-02-01T03:51:54;10.00;;;2.92;;
34896;SDS011;43407;51.828;-2.298;2023-02-01T03:54:21;16.17;;;3.50;;
34896;SDS011;43407;51.828;-2.298;2023-02-01T03:56:47;19.42;;;3.33;;
34896;SDS011;43407;51.828;-2.298;2023-02-01T03:59:13;13.95;;;2.92;;
34896;SDS011;43407;51.828;-2.298;2023-02-01T04:01:38;14.65;;;3.95;;
34896;SDS011;43407;51.828;-2.298;2023-02-01T04:04:04;18.90;;;3.08;;
34896;SDS011;43407;51.828;-2.298;2023-02-01T04:06:29;15.27;;;3.03;;
34896;SDS011;43407;51.828;-2.298;2023-02-01T04:08:55;13.35;;;2.70;;
34896;SDS011;43407;51.828;-2.298;2023-02-01T04:11:20;19.17;;;3.25;;
34896;SDS011;43407;51.828;-2.298;2023-02-01T04:13:46;15.05;;;3.22;;
34896;SDS011;43407;51.828;-2.298;2023-02-01T04:16:11;14.25;;;3.30;;
34896;SDS011;43407;51.828;-2.298;2023-02-01T04:18:37;12.93;;;3.20;;
34896;SDS011;43407;51.828;-2.298;2023-02-01T04:21:02;19.05;;;3.63;;
34896;SDS011;43407;51.828;-2.298;2023-02-01T04:23:28;19.95;;;3.20;;
34896;SDS011;43407;51.828;-2.298;2023-02-01T04:25:58;14.57;;;3.60;;
34896;SDS011;43407;51.828;-2.298;2023-02-01T04:28:24;17.08;;;3.53;;
34896;SDS011;43407;51.828;-2.298;2023-02-01T04:30:50;21.75;;;3.17;;
34896;SDS011;43407;51.828;-2.298;2023-02-01T04:33:15;15.32;;;4.00;;
34896;SDS011;43407;51.828;-2.298;2023-02-01T04:35:40;14.50;;;3.47;;
34896;SDS011;43407;51.828;-2.298;2023-02-01T04:38:06;22.33;;;3.38;;
34896;SDS011;43407;51.828;-2.298;2023-02-01T04:40:32;16.65;;;3.03;;
34896;SDS011;43407;51.828;-2.298;2023-02-01T04:42:58;19.05;;;3.72;;
34896;SDS011;43407;51.828;-2.298;2023-02-01T04:45:23;18.73;;;3.28;;
34896;SDS011;43407;51.828;-2.298;2023-02-01T04:47:49;18.15;;;2.95;;
34896;SDS011;43407;51.828;-2.298;2023-02-01T04:50:15;16.35;;;3.67;;
34896;SDS011;43407;51.828;-2.298;2023-02-01T04:52:40;13.18;;;3.22;;
34896;SDS011;43407;51.828;-2.298;2023-02-01T04:55:06;14.45;;;3.30;;
34896;SDS011;43407;51.828;-2.298;2023-02-01T04:57:32;16.25;;;3.20;;
34896;SDS011;43407;51.828;-2.298;2023-02-01T04:59:57;16.38;;;3.15;;
34896;SDS011;43407;51.828;-2.298;2023-02-01T05:02:23;13.15;;;3.25;;
34896;SDS011;43407;51.828;-2.298;2023-02-01T05:04:48;17.30;;;3.70;;
34896;SDS011;43407;51.828;-2.298;2023-02-01T05:07:15;15.88;;;2.70;;
34896;SDS011;43407;51.828;-2.298;2023-02-01T05:09:41;18.83;;;3.78;;
34896;SDS011;43407;51.828;-2.298;2023-02-01T05:12:06;16.20;;;3.28;;
34896;SDS011;43407;51.828;-2.298;2023-02-01T05:14:51;17.08;;;3.60;;
34896;SDS011;43407;51.828;-2.298;2023-02-01T05:17:17;18.63;;;3.70;;
34896;SDS011;43407;51.828;-2.298;2023-02-01T05:19:42;15.73;;;3.35;;
34896;SDS011;43407;51.828;-2.298;2023-02-01T05:22:07;23.45;;;3.55;;
34896;SDS011;43407;51.828;-2.298;2023-02-01T05:24:33;18.88;;;3.85;;
34896;SDS011;43407;51.828;-2.298;2023-02-01T05:26:58;17.33;;;3.70;;
34896;SDS011;43407;51.828;-2.298;2023-02-01T05:29:24;23.50;;;3.42;;
34896;SDS011;43407;51.828;-2.298;2023-02-01T05:31:49;15.38;;;3.00;;
34896;SDS011;43407;51.828;-2.298;2023-02-01T05:34:15;17.23;;;3.40;;
34896;SDS011;43407;51.828;-2.298;2023-02-01T05:36:40;17.13;;;3.00;;
34896;SDS011;43407;51.828;-2.298;2023-02-01T05:39:06;12.18;;;3.08;;
34896;SDS011;43407;51.828;-2.298;2023-02-01T05:41:32;15.35;;;3.13;;
34896;SDS011;43407;51.828;-2.298;2023-02-01T05:43:57;13.82;;;2.92;;
34896;SDS011;43407;51.828;-2.298;2023-02-01T05:46:23;19.10;;;3.22;;
34896;SDS011;43407;51.828;-2.298;2023-02-01T05:48:49;15.55;;;3.05;;
34896;SDS011;43407;51.828;-2.298;2023-02-01T05:51:14;18.80;;;3.33;;
34896;SDS011;43407;51.828;-2.298;2023-02-01T05:53:39;13.32;;;2.88;;
34896;SDS011;43407;51.828;-2.298;2023-02-01T05:56:05;16.52;;;3.25;;
34896;SDS011;43407;51.828;-2.298;2023-02-01T05:58:31;18.60;;;3.35;;
34896;SDS011;43407;51.828;-2.298;2023-02-01T06:00:58;16.52;;;3.90;;
34896;SDS011;43407;51.828;-2.298;2023-02-01T06:03:25;17.58;;;3.17;;
34896;SDS011;43407;51.828;-2.298;2023-02-01T06:05:50;14.23;;;3.70;;
34896;SDS011;43407;51.828;-2.298;2023-02-01T06:08:16;13.52;;;3.03;;
34896;SDS011;43407;51.828;-2.298;2023-02-01T06:10:42;12.35;;;3.28;;
34896;SDS011;43407;51.828;-2.298;2023-02-01T06:13:08;11.63;;;3.10;;
34896;SDS011;43407;51.828;-2.298;2023-02-01T06:15:33;15.18;;;3.35;;
34896;SDS011;43407;51.828;-2.298;2023-02-01T06:17:59;15.07;;;2.65;;
34896;SDS011;43407;51.828;-2.298;2023-02-01T06:20:25;15.88;;;2.88;;
34896;SDS011;43407;51.828;-2.298;2023-02-01T06:22:50;13.00;;;2.70;;
34896;SDS011;43407;51.828;-2.298;2023-02-01T06:25:17;13.40;;;2.88;;
34896;SDS011;43407;51.828;-2.298;2023-02-01T06:27:43;13.23;;;2.67;;
34896;SDS011;43407;51.828;-2.298;2023-02-01T06:30:10;20.17;;;4.15;;
34896;SDS011;43407;51.828;-2.298;2023-02-01T06:32:38;17.30;;;3.17;;
34896;SDS011;43407;51.828;-2.298;2023-02-01T06:35:05;10.10;;;2.60;;
34896;SDS011;43407;51.828;-2.298;2023-02-01T06:37:32;15.88;;;2.90;;
34896;SDS011;43407;51.828;-2.298;2023-02-01T06:39:58;14.38;;;3.30;;
34896;SDS011;43407;51.828;-2.298;2023-02-01T06:42:23;17.27;;;3.38;;
34896;SDS011;43407;51.828;-2.298;2023-02-01T06:44:49;17.27;;;2.97;;
34896;SDS011;43407;51.828;-2.298;2023-02-01T06:47:14;16.38;;;3.50;;
34896;SDS011;43407;51.828;-2.298;2023-02-01T06:49:40;15.05;;;3.28;;
34896;SDS011;43407;51.828;-2.298;2023-02-01T06:52:05;14.55;;;3.00;;
34896;SDS011;43407;51.828;-2.298;2023-02-01T06:54:31;10.75;;;2.10;;
34896;SDS011;43407;51.828;-2.298;2023-02-01T06:56:58;13.82;;;2.53;;
34896;SDS011;43407;51.828;-2.298;2023-02-01T06:59:24;17.35;;;3.20;;
34896;SDS011;43407;51.828;-2.298;2023-02-01T07:01:49;9.77;;;2.60;;
34896;SDS011;43407;51.828;-2.298;2023-02-01T07:04:15;10.52;;;2.45;;
34896;SDS011;43407;51.828;-2.298;2023-02-01T07:06:40;11.65;;;2.63;;
34896;SDS011;43407;51.828;-2.298;2023-02-01T07:09:06;13.73;;;2.90;;
34896;SDS011;43407;51.828;-2.298;2023-02-01T07:11:32;11.35;;;2.30;;
34896;SDS011;43407;51.828;-2.298;2023-02-01T07:13:58;14.18;;;2.72;;
34896;SDS011;43407;51.828;-2.298;2023-02-01T07:16:24;11.68;;;2.78;;
34896;SDS011;43407;51.828;-2.298;2023-02-01T07:18:50;15.20;;;3.22;;
34896;SDS011;43407;51.828;-2.298;2023-02-01T07:21:17;10.30;;;2.38;;
34896;SDS011;43407;51.828;-2.298;2023-02-01T07:23:43;15.05;;;2.90;;
34896;SDS011;43407;51.828;-2.298;2023-02-01T07:26:09;18.42;;;2.80;;
34896;SDS011;43407;51.828;-2.298;2023-02-01T07:28:37;9.95;;;2.35;;
34896;SDS011;43407;51.828;-2.298;2023-02-01T07:31:03;8.88;;;2.53;;
34896;SDS011;43407;51.828;-2.298;2023-02-01T07:33:29;14.45;;;3.05;;
34896;SDS011;43407;51.828;-2.298;2023-02-01T07:35:54;13.65;;;2.80;;
34896;SDS011;43407;51.828;-2.298;2023-02-01T07:38:20;12.75;;;2.20;;
34896;SDS011;43407;51.828;-2.298;2023-02-01T07:40:46;15.60;;;2.90;;
34896;SDS011;43407;51.828;-2.298;2023-02-01T07:43:12;14.20;;;2.90;;
34896;SDS011;43407;51.828;-2.298;2023-02-01T07:45:38;15.20;;;2.97;;
34896;SDS011;43407;51.828;-2.298;2023-02-01T07:48:03;14.20;;;3.00;;
34896;SDS011;43407;51.828;-2.298;2023-02-01T07:50:29;10.77;;;3.03;;
34896;SDS011;43407;51.828;-2.298;2023-02-01T07:52:55;13.55;;;2.70;;
34896;SDS011;43407;51.828;-2.298;2023-02-01T07:55:21;14.15;;;2.80;;
34896;SDS011;43407;51.828;-2.298;2023-02-01T07:57:46;12.65;;;3.40;;
34896;SDS011;43407;51.828;-2.298;2023-02-01T08:00:12;14.80;;;3.05;;
34896;SDS011;43407;51.828;-2.298;2023-02-01T08:02:57;14.07;;;3.20;;
34896;SDS011;43407;51.828;-2.298;2023-02-01T08:05:23;21.70;;;3.47;;
34896;SDS011;43407;51.828;-2.298;2023-02-01T08:07:49;15.30;;;2.80;;
34896;SDS011;43407;51.828;-2.298;2023-02-01T08:10:15;9.40;;;2.60;;
34896;SDS011;43407;51.828;-2.298;2023-02-01T08:12:41;10.15;;;2.65;;
34896;SDS011;43407;51.828;-2.298;2023-02-01T08:15:07;11.43;;;3.08;;
34896;SDS011;43407;51.828;-2.298;2023-02-01T08:17:32;15.63;;;3.20;;
34896;SDS011;43407;51.828;-2.298;2023-02-01T08:19:58;13.27;;;3.10;;
34896;SDS011;43407;51.828;-2.298;2023-02-01T08:22:24;12.05;;;2.70;;
34896;SDS011;43407;51.828;-2.298;2023-02-01T08:24:49;12.13;;;2.53;;
34896;SDS011;43407;51.828;-2.298;2023-02-01T08:27:15;15.20;;;2.67;;
34896;SDS011;43407;51.828;-2.298;2023-02-01T08:29:41;13.10;;;3.00;;
34896;SDS011;43407;51.828;-2.298;2023-02-01T08:32:06;13.02;;;3.03;;
34896;SDS011;43407;51.828;-2.298;2023-02-01T08:34:32;13.80;;;2.25;;
34896;SDS011;43407;51.828;-2.298;2023-02-01T08:36:57;13.02;;;2.42;;
34896;SDS011;43407;51.828;-2.298;2023-02-01T08:39:23;10.32;;;2.53;;
34896;SDS011;43407;51.828;-2.298;2023-02-01T08:41:50;18.58;;;3.90;;
34896;SDS011;43407;51.828;-2.298;2023-02-01T08:44:34;12.98;;;2.40;;
34896;SDS011;43407;51.828;-2.298;2023-02-01T08:46:59;12.77;;;3.25;;
34896;SDS011;43407;51.828;-2.298;2023-02-01T08:49:25;19.40;;;3.30;;
34896;SDS011;43407;51.828;-2.298;2023-02-01T08:51:51;11.57;;;2.45;;
34896;SDS011;43407;51.828;-2.298;2023-02-01T08:54:16;12.68;;;3.10;;
34896;SDS011;43407;51.828;-2.298;2023-02-01T08:56:42;14.10;;;2.85;;
34896;SDS011;43407;51.828;-2.298;2023-02-01T08:59:07;18.75;;;3.72;;
34896;SDS011;43407;51.828;-2.298;2023-02-01T09:01:33;14.38;;;2.72;;
34896;SDS011;43407;51.828;-2.298;2023-02-01T09:03:58;10.18;;;2.22;;
34896;SDS011;43407;51.828;-2.298;2023-02-01T09:06:24;9.52;;;2.50;;
34896;SDS011;43407;51.828;-2.298;2023-02-01T09:08:49;21.50;;;3.30;;
34896;SDS011;43407;51.828;-2.298;2023-02-01T09:11:16;14.32;;;3.47;;
34896;SDS011;43407;51.828;-2.298;2023-02-01T09:13:43;9.95;;;2.40;;
34896;SDS011;43407;51.828;-2.298;2023-02-01T09:16:09;13.60;;;3.95;;
34896;SDS011;43407;51.828;-2.298;2023-02-01T09:18:35;11.93;;;2.65;;
34896;SDS011;43407;51.828;-2.298;2023-02-01T09:21:04;10.45;;;2.90;;
34896;SDS011;43407;51.828;-2.298;2023-02-01T09:23:30;8.90;;;2.47;;
34896;SDS011;43407;51.828;-2.298;2023-02-01T09:26:00;10.68;;;2.33;;
34896;SDS011;43407;51.828;-2.298;2023-02-01T09:28:26;12.65;;;2.95;;
34896;SDS011;43407;51.828;-2.298;2023-02-01T09:30:55;10.23;;;2.65;;
34896;SDS011;43407;51.828;-2.298;2023-02-01T09:33:22;15.40;;;3.08;;
34896;SDS011;43407;51.828;-2.298;2023-02-01T09:36:01;11.30;;;2.67;;
34896;SDS011;43407;51.828;-2.298;2023-02-01T09:38:28;8.85;;;2.60;;
34896;SDS011;43407;51.828;-2.298;2023-02-01T09:40:54;10.45;;;2.78;;
34896;SDS011;43407;51.828;-2.298;2023-02-01T09:49:00;8.95;;;2.47;;
34896;SDS011;43407;51.828;-2.298;2023-02-01T09:51:33;13.43;;;2.60;;
34896;SDS011;43407;51.828;-2.298;2023-02-01T09:54:17;11.52;;;2.55;;
34896;SDS011;43407;51.828;-2.298;2023-02-01T09:56:46;8.63;;;2.40;;
34896;SDS011;43407;51.828;-2.298;2023-02-01T10:04:24;9.07;;;2.25;;
34896;SDS011;43407;51.828;-2.298;2023-02-01T10:28:54;7.82;;;2.35;;
34896;SDS011;43407;51.828;-2.298;2023-02-01T10:31:24;14.90;;;2.90;;
34896;SDS011;43407;51.828;-2.298;2023-02-01T10:33:59;8.13;;;2.33;;
34896;SDS011;43407;51.828;-2.298;2023-02-01T10:36:29;10.95;;;2.33;;
34896;SDS011;43407;51.828;-2.298;2023-02-01T10:39:01;9.23;;;2.22;;
34896;SDS011;43407;51.828;-2.298;2023-02-01T10:41:30;12.38;;;2.33;;
34896;SDS011;43407;51.828;-2.298;2023-02-01T10:43:58;13.43;;;2.63;;
34896;SDS011;43407;51.828;-2.298;2023-02-01T10:46:25;8.98;;;2.78;;
34896;SDS011;43407;51.828;-2.298;2023-02-01T10:48:52;8.57;;;2.60;;
34896;SDS011;43407;51.828;-2.298;2023-02-01T10:51:24;8.32;;;2.28;;
34896;SDS011;43407;51.828;-2.298;2023-02-01T10:53:57;9.15;;;2.80;;
34896;SDS011;43407;51.828;-2.298;2023-02-01T10:56:26;11.60;;;2.47;;
34896;SDS011;43407;51.828;-2.298;2023-02-01T10:58:59;11.32;;;2.53;;
34896;SDS011;43407;51.828;-2.298;2023-02-01T11:01:42;8.57;;;2.08;;
34896;SDS011;43407;51.828;-2.298;2023-02-01T11:04:15;9.13;;;2.28;;
34896;SDS011;43407;51.828;-2.298;2023-02-01T11:06:43;7.97;;;2.28;;
34896;SDS011;43407;51.828;-2.298;2023-02-01T11:09:18;6.13;;;1.80;;
34896;SDS011;43407;51.828;-2.298;2023-02-01T11:17:00;8.27;;;2.35;;
34896;SDS011;43407;51.828;-2.298;2023-02-01T11:19:28;8.63;;;2.22;;
34896;SDS011;43407;51.828;-2.298;2023-02-01T11:21:54;7.40;;;2.15;;
34896;SDS011;43407;51.828;-2.298;2023-02-01T11:24:54;12.57;;;2.20;;
34896;SDS011;43407;51.828;-2.298;2023-02-01T11:27:14;10.18;;;1.95;;
34896;SDS011;43407;51.828;-2.298;2023-02-01T11:29:43;8.63;;;2.53;;
34896;SDS011;43407;51.828;-2.298;2023-02-01T11:32:11;13.00;;;2.63;;
34896;SDS011;43407;51.828;-2.298;2023-02-01T11:34:40;8.60;;;2.10;;
34896;SDS011;43407;51.828;-2.298;2023-02-01T11:37:19;9.95;;;2.47;;
34896;SDS011;43407;51.828;-2.298;2023-02-01T11:39:53;10.27;;;2.60;;
34896;SDS011;43407;51.828;-2.298;2023-02-01T11:42:22;9.20;;;2.35;;
34896;SDS011;43407;51.828;-2.298;2023-02-01T11:44:48;11.07;;;2.53;;
34896;SDS011;43407;51.828;-2.298;2023-02-01T11:47:30;8.05;;;2.25;;
34896;SDS011;43407;51.828;-2.298;2023-02-01T11:50:08;8.98;;;2.13;;
34896;SDS011;43407;51.828;-2.298;2023-02-01T12:01:40;8.95;;;2.20;;
34896;SDS011;43407;51.828;-2.298;2023-02-01T12:36:25;10.57;;;2.42;;
34896;SDS011;43407;51.828;-2.298;2023-02-01T12:39:01;7.18;;;2.35;;
34896;SDS011;43407;51.828;-2.298;2023-02-01T12:49:12;10.00;;;3.92;;
34896;SDS011;43407;51.828;-2.298;2023-02-01T12:51:42;9.32;;;3.25;;
34896;SDS011;43407;51.828;-2.298;2023-02-01T12:54:31;7.90;;;2.78;;
34896;SDS011;43407;51.828;-2.298;2023-02-01T12:57:01;8.43;;;2.95;;
34896;SDS011;43407;51.828;-2.298;2023-02-01T12:59:41;12.25;;;3.50;;
34896;SDS011;43407;51.828;-2.298;2023-02-01T13:07:21;9.88;;;3.10;;
34896;SDS011;43407;51.828;-2.298;2023-02-01T13:12:22;12.05;;;4.07;;
34896;SDS011;43407;51.828;-2.298;2023-02-01T13:14:53;10.80;;;3.80;;
34896;SDS011;43407;51.828;-2.298;2023-02-01T13:17:39;11.07;;;3.70;;
34896;SDS011;43407;51.828;-2.298;2023-02-01T13:20:13;11.38;;;3.10;;
34896;SDS011;43407;51.828;-2.298;2023-02-01T13:22:48;8.23;;;3.13;;
34896;SDS011;43407;51.828;-2.298;2023-02-01T13:25:37;11.27;;;3.07;;
34896;SDS011;43407;51.828;-2.298;2023-02-01T13:28:11;9.73;;;2.88;;
34896;SDS011;43407;51.828;-2.298;2023-02-01T13:30:47;11.85;;;3.25;;
34896;SDS011;43407;51.828;-2.298;2023-02-01T13:41:52;12.80;;;3.90;;
34896;SDS011;43407;51.828;-2.298;2023-02-01T13:44:28;13.07;;;3.55;;
34896;SDS011;43407;51.828;-2.298;2023-02-01T13:46:57;5.60;;;2.60;;
34896;SDS011;43407;51.828;-2.298;2023-02-01T13:49:26;7.57;;;2.30;;
34896;SDS011;43407;51.828;-2.298;2023-02-01T13:51:54;8.25;;;2.22;;
34896;SDS011;43407;51.828;-2.298;2023-02-01T13:56:57;6.55;;;2.10;;
34896;SDS011;43407;51.828;-2.298;2023-02-01T14:05:01;7.95;;;2.30;;
34896;SDS011;43407;51.828;-2.298;2023-02-01T14:07:27;13.73;;;2.80;;
34896;SDS011;43407;51.828;-2.298;2023-02-01T14:09:53;10.55;;;2.50;;
34896;SDS011;43407;51.828;-2.298;2023-02-01T14:15:26;8.88;;;2.40;;
34896;SDS011;43407;51.828;-2.298;2023-02-01T14:17:53;5.40;;;2.20;;
34896;SDS011;43407;51.828;-2.298;2023-02-01T14:23:18;6.82;;;2.33;;
34896;SDS011;43407;51.828;-2.298;2023-02-01T14:25:46;6.60;;;2.05;;
34896;SDS011;43407;51.828;-2.298;2023-02-01T14:28:21;5.95;;;2.30;;
34896;SDS011;43407;51.828;-2.298;2023-02-01T14:30:50;9.40;;;2.30;;
34896;SDS011;43407;51.828;-2.298;2023-02-01T14:33:22;7.72;;;2.40;;
34896;SDS011;43407;51.828;-2.298;2023-02-01T14:38:33;8.85;;;3.33;;
34896;SDS011;43407;51.828;-2.298;2023-02-01T14:41:11;10.32;;;3.42;;
34896;SDS011;43407;51.828;-2.298;2023-02-01T14:49:47;9.40;;;2.55;;
34896;SDS011;43407;51.828;-2.298;2023-02-01T14:52:14;8.75;;;2.42;;
34896;SDS011;43407;51.828;-2.298;2023-02-01T14:54:43;9.45;;;2.25;;
34896;SDS011;43407;51.828;-2.298;2023-02-01T14:57:14;8.65;;;2.50;;
34896;SDS011;43407;51.828;-2.298;2023-02-01T14:59:42;10.48;;;2.47;;
34896;SDS011;43407;51.828;-2.298;2023-02-01T15:02:16;8.48;;;2.10;;
34896;SDS011;43407;51.828;-2.298;2023-02-01T15:04:46;7.55;;;2.38;;
34896;SDS011;43407;51.828;-2.298;2023-02-01T15:07:19;5.68;;;2.05;;
34896;SDS011;43407;51.828;-2.298;2023-02-01T15:09:46;6.28;;;2.10;;
34896;SDS011;43407;51.828;-2.298;2023-02-01T15:17:49;7.30;;;2.13;;
34896;SDS011;43407;51.828;-2.298;2023-02-01T15:20:25;4.97;;;1.70;;
34896;SDS011;43407;51.828;-2.298;2023-02-01T15:22:53;5.50;;;1.75;;
34896;SDS011;43407;51.828;-2.298;2023-02-01T15:25:22;6.90;;;1.67;;
34896;SDS011;43407;51.828;-2.298;2023-02-01T15:27:57;4.93;;;1.27;;
34896;SDS011;43407;51.828;-2.298;2023-02-01T15:30:25;7.18;;;1.60;;
34896;SDS011;43407;51.828;-2.298;2023-02-01T15:33:03;6.80;;;1.80;;
34896;SDS011;43407;51.828;-2.298;2023-02-01T15:35:46;2.83;;;1.15;;
34896;SDS011;43407;51.828;-2.298;2023-02-01T15:40:59;7.32;;;1.73;;
34896;SDS011;43407;51.828;-2.298;2023-02-01T15:43:35;6.40;;;1.83;;
34896;SDS011;43407;51.828;-2.298;2023-02-01T15:46:02;5.35;;;1.48;;
34896;SDS011;43407;51.828;-2.298;2023-02-01T15:48:36;6.32;;;2.10;;
34896;SDS011;43407;51.828;-2.298;2023-02-01T15:51:22;5.55;;;1.90;;
34896;SDS011;43407;51.828;-2.298;2023-02-01T15:53:52;4.72;;;1.70;;
34896;SDS011;43407;51.828;-2.298;2023-02-01T15:56:24;8.10;;;1.90;;
34896;SDS011;43407;51.828;-2.298;2023-02-01T15:58:53;6.75;;;1.83;;
34896;SDS011;43407;51.828;-2.298;2023-02-01T16:01:20;7.60;;;1.95;;
34896;SDS011;43407;51.828;-2.298;2023-02-01T16:03:46;6.15;;;1.90;;
34896;SDS011;43407;51.828;-2.298;2023-02-01T16:08:55;9.20;;;2.05;;
34896;SDS011;43407;51.828;-2.298;2023-02-01T16:11:29;8.23;;;1.95;;
34896;SDS011;43407;51.828;-2.298;2023-02-01T16:13:57;5.57;;;2.05;;
34896;SDS011;43407;51.828;-2.298;2023-02-01T16:16:24;7.85;;;2.03;;
34896;SDS011;43407;51.828;-2.298;2023-02-01T16:18:50;6.60;;;1.80;;
34896;SDS011;43407;51.828;-2.298;2023-02-01T16:21:15;4.70;;;2.03;;
34896;SDS011;43407;51.828;-2.298;2023-02-01T16:23:41;8.07;;;2.00;;
34896;SDS011;43407;51.828;-2.298;2023-02-01T16:26:06;5.03;;;1.80;;
34896;SDS011;43407;51.828;-2.298;2023-02-01T16:28:32;7.43;;;2.10;;
34896;SDS011;43407;51.828;-2.298;2023-02-01T16:30:58;8.30;;;2.00;;
34896;SDS011;43407;51.828;-2.298;2023-02-01T16:33:24;4.30;;;1.48;;
34896;SDS011;43407;51.828;-2.298;2023-02-01T16:35:50;4.07;;;1.55;;
34896;SDS011;43407;51.828;-2.298;2023-02-01T16:38:18;3.53;;;1.42;;
34896;SDS011;43407;51.828;-2.298;2023-02-01T16:40:47;5.47;;;1.70;;
34896;SDS011;43407;51.828;-2.298;2023-02-01T16:43:18;3.67;;;1.40;;
34896;SDS011;43407;51.828;-2.298;2023-02-01T16:45:48;4.07;;;1.73;;
34896;SDS011;43407;51.828;-2.298;2023-02-01T16:50:49;3.88;;;1.63;;
34896;SDS011;43407;51.828;-2.298;2023-02-01T16:53:17;4.00;;;1.65;;
34896;SDS011;43407;51.828;-2.298;2023-02-01T16:55:43;4.15;;;1.40;;
34896;SDS011;43407;51.828;-2.298;2023-02-01T16:58:09;4.32;;;1.50;;
34896;SDS011;43407;51.828;-2.298;2023-02-01T17:00:34;4.30;;;1.88;;
34896;SDS011;43407;51.828;-2.298;2023-02-01T17:03:03;5.53;;;1.70;;
34896;SDS011;43407;51.828;-2.298;2023-02-01T17:05:30;5.50;;;1.55;;
34896;SDS011;43407;51.828;-2.298;2023-02-01T17:07:56;2.97;;;1.42;;
34896;SDS011;43407;51.828;-2.298;2023-02-01T17:10:27;6.95;;;1.70;;
34896;SDS011;43407;51.828;-2.298;2023-02-01T17:12:52;5.43;;;1.65;;
34896;SDS011;43407;51.828;-2.298;2023-02-01T17:15:17;5.80;;;1.58;;
34896;SDS011;43407;51.828;-2.298;2023-02-01T17:17:43;4.70;;;1.52;;
34896;SDS011;43407;51.828;-2.298;2023-02-01T17:20:17;6.88;;;1.70;;
34896;SDS011;43407;51.828;-2.298;2023-02-01T17:22:46;4.85;;;1.60;;
34896;SDS011;43407;51.828;-2.298;2023-02-01T17:25:18;4.22;;;1.85;;
34896;SDS011;43407;51.828;-2.298;2023-02-01T17:27:46;9.75;;;1.88;;
34896;SDS011;43407;51.828;-2.298;2023-02-01T17:30:12;11.15;;;2.83;;
34896;SDS011;43407;51.828;-2.298;2023-02-01T17:32:38;5.25;;;1.83;;